Villisca, Iowa
Current Conditions -  °F | °C
As of 8:15 AM on Sunday 21 Dec 2014 (Local Time) from KICL Reporting Station
Overcast Overcast  
Wind Chill: 30°   Ceiling: 1700
Heat Index: 37°   Visibility: 7mi
Dew Point: 36°   Wind: 12mph
Humidity: 93%   Direction: 170°S
Pressure: 29.96"   Gusts: 17mph
Location:  40.93°N, 94.98°W
Report Text: KICL 211415Z AUTO 17010G15KT 7SM SCT011 OVC017 03/02 A2996 RMK AO2
Loading
Personal Weather Stations






























Interactive Weather Map New forecast layout! Learn more

10-Day Weather Forecast

Advertisements
Track Severe Weather on mobile